Time;durP1;ratioP1;P1;durP2;ratioP2;P2;SDS_P1;SDS_P2;PMS_P1;PMS_P2;Temp;Humidity;BMP_temperature;BMP_pressure;BME280_temperature;BME280_humidity;BME280_pressure;Samples;Min_cycle;Max_cycle;Signal;HPM_P1;HPM_P2
2022/06/30 00:00:59;;;;;;;11.82;7.68;;;19.90;81.40;;;18.95;100.00;95727.69;4953229;28;20047;-68
2022/06/30 00:03:25;;;;;;;12.57;8.15;;;19.70;81.20;;;18.90;100.00;95727.66;4952021;28;20035;-69
2022/06/30 00:05:51;;;;;;;12.93;8.32;;;19.70;81.40;;;18.89;100.00;95727.91;4967456;28;20122;-69
2022/06/30 00:08:16;;;;;;;11.70;7.78;;;19.80;81.50;;;18.87;100.00;95724.69;4953020;28;20115;-70
2022/06/30 00:10:42;;;;;;;12.18;8.68;;;19.70;81.80;;;18.84;100.00;95725.97;4967901;28;20124;-69
2022/06/30 00:13:08;;;;;;;12.70;8.48;;;19.70;82.10;;;18.81;100.00;95715.81;4953334;28;20094;-70
2022/06/30 00:15:35;;;;;;;10.18;7.97;;;19.60;82.00;;;18.79;100.00;95709.94;4953867;28;20031;-69
2022/06/30 00:18:01;;;;;;;10.50;7.55;;;19.70;82.10;;;18.78;100.00;95702.97;4933163;28;20051;-69
2022/06/30 00:20:27;;;;;;;17.95;8.60;;;19.70;81.90;;;18.78;100.00;95699.50;4952353;28;20034;-70
2022/06/30 00:22:52;;;;;;;14.73;8.77;;;19.70;81.90;;;18.75;100.00;95698.16;4936137;28;20051;-69
2022/06/30 00:25:18;;;;;;;11.65;9.15;;;19.60;81.90;;;18.72;100.00;95695.19;4951615;28;20109;-69
2022/06/30 00:27:44;;;;;;;11.50;8.90;;;19.60;82.20;;;18.70;100.00;95690.13;4946019;28;20039;-69
2022/06/30 00:30:10;;;;;;;9.80;8.05;;;19.50;82.40;;;18.69;100.00;95685.84;4951034;28;20027;-70
2022/06/30 00:32:36;;;;;;;10.52;8.10;;;19.50;82.50;;;18.68;100.00;95681.56;4967248;28;20569;-69
2022/06/30 00:35:02;;;;;;;12.02;7.88;;;19.60;82.30;;;18.66;100.00;95681.00;4952484;28;20074;-69
2022/06/30 00:37:29;;;;;;;12.52;8.75;;;19.50;82.30;;;18.65;100.00;95685.53;4950832;28;20034;-70
2022/06/30 00:39:54;;;;;;;12.93;8.45;;;19.60;82.40;;;18.62;100.00;95685.22;4967892;28;20047;-69
2022/06/30 00:42:20;;;;;;;10.23;9.23;;;19.50;82.50;;;18.61;100.00;95678.28;4936686;28;20027;-69
2022/06/30 00:44:46;;;;;;;11.40;7.82;;;19.50;82.50;;;18.61;100.00;95679.06;4964580;28;20046;-69
2022/06/30 00:47:11;;;;;;;10.30;8.35;;;19.50;82.50;;;18.58;100.00;95673.44;4950683;28;20398;-70
2022/06/30 00:49:37;;;;;;;9.60;8.63;;;19.50;82.50;;;18.58;100.00;95681.44;4950379;28;20035;-69
2022/06/30 00:52:03;;;;;;;10.10;8.55;;;19.40;82.70;;;18.53;100.00;95682.16;4952836;28;20196;-69
2022/06/30 00:54:30;;;;;;;11.68;9.25;;;19.40;82.80;;;18.49;100.00;95686.38;4950449;28;20043;-69
2022/06/30 00:56:56;;;;;;;11.00;8.13;;;19.30;82.90;;;18.48;100.00;95689.28;4951872;28;20034;-69
2022/06/30 00:59:21;;;;;;;12.13;8.75;;;19.40;83.00;;;18.46;100.00;95678.09;4949337;28;20116;-69
2022/06/30 01:01:48;;;;;;;12.20;9.35;;;19.40;83.00;;;18.45;100.00;95669.28;4950957;28;20038;-70
2022/06/30 01:04:14;;;;;;;9.88;8.88;;;19.40;83.00;;;18.45;100.00;95669.28;4951424;28;20153;-70
2022/06/30 01:06:42;;;;;;;11.93;8.88;;;19.50;83.00;;;18.44;100.00;95672.19;4964004;28;20135;-69
2022/06/30 01:09:08;;;;;;;12.75;9.02;;;19.40;83.00;;;18.41;100.00;95667.38;4936009;28;20053;-69
2022/06/30 01:14:18;;;;;;;10.77;9.57;;;19.40;83.30;;;18.35;100.00;95680.63;4962359;28;20037;-70
2022/06/30 01:16:44;;;;;;;13.27;10.55;;;19.30;83.60;;;18.36;100.00;95676.13;4947990;28;20075;-70
2022/06/30 01:19:09;;;;;;;14.38;11.43;;;19.30;84.00;;;18.34;100.00;95679.03;4949754;28;20049;-70
2022/06/30 01:21:35;;;;;;;12.75;11.55;;;19.20;84.10;;;18.34;100.00;95676.38;4933248;28;20531;-69
2022/06/30 01:24:01;;;;;;;12.13;10.88;;;19.20;84.20;;;18.34;100.00;95683.56;4944406;28;20057;-69
2022/06/30 01:26:30;;;;;;;12.40;11.20;;;19.30;84.00;;;18.32;100.00;95677.63;4947105;28;20514;-69
2022/06/30 01:28:56;;;;;;;8.73;7.85;;;19.30;84.20;;;18.32;100.00;95675.78;4954127;28;20047;-69
2022/06/30 01:31:22;;;;;;;13.25;11.75;;;19.30;84.10;;;18.32;100.00;95680.31;4966322;28;20042;-69
2022/06/30 01:33:49;;;;;;;13.57;11.57;;;19.30;84.00;;;18.31;100.00;95684.03;4942770;28;20468;-69
2022/06/30 01:36:14;;;;;;;12.90;11.65;;;19.20;84.00;;;18.27;100.00;95682.91;4951787;28;20386;-69
2022/06/30 01:38:40;;;;;;;12.73;11.52;;;19.20;84.00;;;18.23;100.00;95676.47;4941143;28;20127;-69
2022/06/30 01:41:06;;;;;;;13.13;11.82;;;19.10;84.10;;;18.19;100.00;95686.81;4955304;28;20042;-69
2022/06/30 01:43:32;;;;;;;12.95;11.70;;;19.10;84.40;;;18.18;100.00;95685.22;4935189;28;20038;-69
2022/06/30 01:45:57;;;;;;;15.27;13.45;;;19.10;84.50;;;18.17;100.00;95678.28;4966499;28;20039;-69
2022/06/30 01:48:23;;;;;;;14.23;12.70;;;19.10;84.70;;;18.18;100.00;95679.06;4935722;28;20034;-69
2022/06/30 01:50:49;;;;;;;14.52;13.05;;;19.10;85.00;;;18.17;100.00;95680.94;4938933;28;20035;-69
2022/06/30 01:53:15;;;;;;;15.40;12.10;;;19.10;84.90;;;18.17;100.00;95677.47;4967415;28;20093;-69
2022/06/30 01:55:40;;;;;;;12.88;11.73;;;19.20;84.60;;;18.17;100.00;95672.94;4964664;28;20054;-68
2022/06/30 01:58:06;;;;;;;12.65;11.35;;;19.20;84.50;;;18.15;100.00;95675.06;4950984;28;20154;-69
2022/06/30 02:00:32;;;;;;;11.90;10.73;;;19.10;84.50;;;18.15;100.00;95679.56;4964205;28;20128;-69
2022/06/30 02:02:58;;;;;;;12.57;11.27;;;19.10;84.40;;;18.14;100.00;95686.75;4964535;28;20039;-69
2022/06/30 02:05:24;;;;;;;11.68;10.43;;;19.10;84.40;;;18.14;100.00;95686.75;4961222;28;20399;-70
2022/06/30 02:07:50;;;;;;;11.55;10.35;;;19.10;84.30;;;18.11;100.00;95687.25;4922837;28;20027;-69
2022/06/30 02:10:19;;;;;;;11.10;10.00;;;19.10;84.20;;;18.13;100.00;95697.66;4951337;28;20375;-69
2022/06/30 02:12:44;;;;;;;12.40;11.13;;;19.10;84.30;;;18.12;100.00;95694.19;4948033;28;20110;-72
2022/06/30 02:15:11;;;;;;;12.43;11.15;;;19.10;84.20;;;18.10;100.00;95698.91;4952463;28;20057;-69
2022/06/30 02:17:37;;;;;;;13.07;11.20;;;19.10;84.10;;;18.09;100.00;95694.66;4934029;28;20038;-70
2022/06/30 02:20:04;;;;;;;13.32;11.88;;;19.10;84.10;;;18.08;100.00;95698.34;4957780;28;20588;-69
2022/06/30 02:22:29;;;;;;;14.38;10.93;;;19.10;84.00;;;18.09;100.00;95702.63;4949366;28;20038;-69
2022/06/30 02:24:55;;;;;;;11.73;10.05;;;19.10;84.10;;;18.10;100.00;95696.25;4965329;28;20458;-69
2022/06/30 02:27:23;;;;;;;15.13;10.63;;;19.10;84.00;;;18.09;100.00;95705.28;4935673;28;20498;-69
2022/06/30 02:29:50;;;;;;;11.60;10.40;;;19.10;83.90;;;18.09;100.00;95707.16;4949117;28;20470;-69
2022/06/30 02:32:16;;;;;;;11.93;10.73;;;19.10;83.90;;;18.06;100.00;95709.25;4937351;28;20403;-69
2022/06/30 02:34:43;;;;;;;13.48;10.18;;;19.10;83.90;;;18.04;100.00;95705.22;4928826;28;20039;-69
2022/06/30 02:37:09;;;;;;;13.60;10.25;;;19.00;84.00;;;18.02;100.00;95707.34;4916678;28;20054;-69
2022/06/30 02:39:34;;;;;;;16.55;13.15;;;19.10;84.10;;;18.02;100.00;95704.69;4922811;29;20118;-69
2022/06/30 02:42:00;;;;;;;26.05;23.45;;;19.00;84.10;;;18.01;100.00;95705.72;4914656;29;20126;-69
2022/06/30 02:44:26;;;;;;;28.05;25.10;;;19.00;84.00;;;18.02;100.00;95707.34;4929908;28;20075;-69
2022/06/30 02:46:52;;;;;;;15.27;11.23;;;19.10;84.00;;;18.02;100.00;95707.34;4952226;28;20470;-69
2022/06/30 02:49:18;;;;;;;11.02;9.88;;;19.10;83.70;;;18.00;100.00;95704.13;4953730;28;20460;-69
2022/06/30 02:51:44;;;;;;;37.47;33.60;;;19.00;83.90;;;18.01;100.00;95708.38;4953663;28;20126;-69
2022/06/30 02:54:10;;;;;;;47.90;42.70;;;19.00;84.00;;;17.99;100.00;95707.84;4912277;28;20437;-69
2022/06/30 02:56:35;;;;;;;24.75;22.23;;;19.00;83.90;;;17.99;100.00;95702.50;4934999;28;20046;-69
2022/06/30 02:59:01;;;;;;;26.00;23.25;;;19.00;84.00;;;17.99;100.00;95702.50;4968622;28;20043;-69
2022/06/30 03:01:27;;;;;;;46.88;41.25;;;19.10;83.90;;;17.98;100.00;95714.19;4942760;28;20051;-69
2022/06/30 03:03:53;;;;;;;18.45;16.08;;;19.00;83.90;;;17.95;100.00;95717.34;4964872;28;20039;-69
2022/06/30 03:06:18;;;;;;;12.52;11.25;;;19.00;84.00;;;17.93;100.00;95714.13;4930402;28;20031;-70
2022/06/30 03:08:44;;;;;;;20.55;18.40;;;18.90;83.80;;;17.89;100.00;95713.03;4948659;28;20039;-69
2022/06/30 03:11:16;;;;;;;21.65;18.60;;;18.90;83.90;;;17.88;100.00;95711.38;4953766;28;20058;-69
2022/06/30 03:13:44;;;;;;;12.60;10.93;;;18.80;83.80;;;17.88;100.00;95714.03;4967823;28;20443;-69
2022/06/30 03:16:10;;;;;;;10.38;9.32;;;18.90;83.60;;;17.83;100.00;95720.09;4953852;28;20031;-69
2022/06/30 03:18:35;;;;;;;10.10;8.27;;;18.80;83.60;;;17.80;100.00;95711.81;4953084;28;20039;-69
2022/06/30 03:21:01;;;;;;;29.75;25.05;;;18.70;83.60;;;17.80;100.00;95714.47;4968854;28;20515;-69
2022/06/30 03:23:27;;;;;;;16.88;13.57;;;18.80;83.60;;;17.80;100.00;95715.25;4954189;28;20063;-69
2022/06/30 03:25:53;;;;;;;16.83;13.43;;;18.80;83.70;;;17.79;100.00;95711.00;4955259;28;20054;-68
2022/06/30 03:28:18;;;;;;;12.77;10.00;;;18.80;83.70;;;17.79;100.00;95718.16;4944324;28;20035;-67
2022/06/30 03:30:47;;;;;;;10.55;9.38;;;18.80;83.90;;;17.77;100.00;95715.75;4953393;28;20043;-69
2022/06/30 03:33:16;;;;;;;10.20;8.40;;;18.80;83.90;;;17.75;100.00;95718.66;4950937;28;20035;-66
2022/06/30 03:35:42;;;;;;;10.23;9.23;;;18.70;83.90;;;17.73;100.00;95714.63;4953013;28;20380;-67
2022/06/30 03:38:08;;;;;;;11.70;9.15;;;18.70;84.10;;;17.72;100.00;95719.16;4961583;28;20086;-66
2022/06/30 03:40:34;;;;;;;9.90;8.60;;;18.70;84.00;;;17.73;100.00;95725.28;4948721;28;20073;-67
2022/06/30 03:43:00;;;;;;;10.10;8.52;;;18.80;84.00;;;17.73;100.00;95720.75;4951052;28;20053;-69
2022/06/30 03:45:26;;;;;;;10.88;9.57;;;18.80;83.90;;;17.74;100.00;95716.25;4966594;28;20027;-69
2022/06/30 03:47:52;;;;;;;29.33;26.17;;;18.80;83.70;;;17.74;100.00;95714.38;4946748;28;20027;-69
2022/06/30 03:50:17;;;;;;;27.63;24.65;;;18.80;83.60;;;17.74;100.00;95718.91;4957407;28;20033;-69
2022/06/30 03:52:43;;;;;;;12.90;11.68;;;18.80;83.50;;;17.73;100.00;95720.75;4962147;28;20031;-69
2022/06/30 03:55:12;;;;;;;9.75;8.75;;;18.80;83.40;;;17.72;100.00;95721.00;4960769;28;20031;-68
2022/06/30 03:57:38;;;;;;;9.95;8.13;;;18.80;83.50;;;17.72;100.00;95715.69;4953762;28;20031;-69
2022/06/30 04:00:05;;;;;;;10.13;7.65;;;18.80;83.50;;;17.74;100.00;95721.56;4959695;28;20138;-69
2022/06/30 04:02:31;;;;;;;9.07;7.75;;;18.80;83.60;;;17.73;100.00;95719.97;4966093;28;20571;-69
2022/06/30 04:04:57;;;;;;;8.82;8.02;;;18.80;83.80;;;17.74;100.00;95730.34;4952736;28;20039;-69
2022/06/30 04:07:22;;;;;;;9.25;7.63;;;18.80;83.60;;;17.73;100.00;95720.75;4951826;28;20058;-69
2022/06/30 04:09:48;;;;;;;9.20;7.22;;;18.90;83.60;;;17.73;100.00;95719.97;4964118;28;20062;-69
2022/06/30 04:12:14;;;;;;;8.48;7.57;;;18.90;83.60;;;17.75;100.00;95729.31;4933556;28;20039;-69
2022/06/30 04:14:40;;;;;;;8.15;7.35;;;18.90;83.70;;;17.77;100.00;95722.94;4949186;28;20036;-69
2022/06/30 04:17:05;;;;;;;8.30;7.60;;;18.80;83.80;;;17.77;100.00;95728.25;4947331;28;20067;-69
2022/06/30 04:19:31;;;;;;;8.70;7.28;;;18.90;83.90;;;17.78;100.00;95733.34;4968562;28;20408;-68
2022/06/30 04:21:57;;;;;;;9.50;7.57;;;18.90;83.90;;;17.81;100.00;95732.03;4947979;28;20049;-68
2022/06/30 04:24:23;;;;;;;8.20;7.40;;;19.00;83.80;;;17.82;100.00;95730.97;4969754;28;20066;-69
2022/06/30 04:26:49;;;;;;;7.53;6.80;;;19.00;84.00;;;17.82;100.00;95734.44;4957104;28;20042;-68
2022/06/30 04:29:14;;;;;;;8.43;7.10;;;19.00;84.00;;;17.84;100.00;95737.66;4950598;28;20094;-69
2022/06/30 04:34:25;;;;;;;11.02;6.95;;;19.10;83.90;;;17.89;100.00;95742.28;4962422;28;20038;-69
2022/06/30 04:36:50;;;;;;;8.82;7.07;;;19.20;83.80;;;17.92;100.00;95739.94;4957907;28;20558;-69
2022/06/30 04:39:16;;;;;;;8.32;6.78;;;19.10;83.70;;;17.95;100.00;95738.66;4966932;28;20035;-67
2022/06/30 04:41:42;;;;;;;7.55;6.78;;;19.20;83.60;;;17.96;100.00;95741.06;4966815;28;20128;-67
2022/06/30 04:44:07;;;;;;;7.93;7.00;;;19.20;83.50;;;18.01;100.00;95732.34;4935219;28;20129;-67
2022/06/30 04:46:33;;;;;;;26.77;23.77;;;19.30;83.60;;;18.05;100.00;95738.78;4952418;28;20038;-68
2022/06/30 04:48:59;;;;;;;30.00;24.75;;;19.30;83.60;;;18.11;100.00;95732.50;4954166;28;20097;-67
2022/06/30 04:51:26;;;;;;;18.17;15.27;;;19.40;83.40;;;18.16;100.00;95729.91;4951359;28;20034;-69
2022/06/30 04:53:52;;;;;;;9.90;8.90;;;19.50;83.10;;;18.18;100.00;95733.13;4924547;28;20042;-68
2022/06/30 04:56:17;;;;;;;8.15;7.35;;;19.50;82.90;;;18.23;100.00;95727.84;4952588;28;20109;-66
2022/06/30 04:58:44;;;;;;;8.20;7.38;;;19.50;82.80;;;18.26;100.00;95727.38;4951946;28;20187;-65
2022/06/30 05:01:10;;;;;;;11.57;7.30;;;19.60;82.90;;;18.30;100.00;95741.78;4966736;28;20045;-65
2022/06/30 05:03:35;;;;;;;9.55;7.43;;;19.60;83.00;;;18.32;100.00;95738.88;4959596;28;20043;-69
2022/06/30 05:06:03;;;;;;;8.13;7.07;;;19.60;83.10;;;18.35;100.00;95736.56;4946698;28;20575;-67
2022/06/30 05:08:28;;;;;;;9.05;7.00;;;19.60;83.00;;;18.38;100.00;95737.13;4927681;28;20077;-67
2022/06/30 05:10:54;;;;;;;11.13;7.45;;;19.70;82.90;;;18.42;100.00;95724.91;4948727;28;20067;-68
2022/06/30 05:13:20;;;;;;;9.18;7.00;;;19.70;82.80;;;18.44;100.00;95728.13;4949424;28;20038;-67
2022/06/30 05:15:46;;;;;;;7.78;6.97;;;19.70;82.70;;;18.47;100.00;95719.66;4935688;28;20089;-68
2022/06/30 05:18:12;;;;;;;10.13;7.40;;;19.80;82.70;;;18.51;100.00;95726.06;4950108;28;20057;-67
2022/06/30 05:20:39;;;;;;;9.00;8.10;;;19.80;82.80;;;18.55;100.00;95719.19;4961945;28;20047;-69
2022/06/30 05:23:05;;;;;;;8.77;7.07;;;19.80;83.00;;;18.58;100.00;95718.72;4950579;28;20039;-68
2022/06/30 05:28:15;;;;;;;6.82;5.43;;;20.10;82.00;;;18.67;100.00;95715.41;4946672;28;20041;-70
2022/06/30 05:30:41;;;;;;;12.55;7.78;;;20.10;81.50;;;18.72;100.00;95717.31;4925136;28;20028;-68
2022/06/30 05:33:08;;;;;;;8.02;7.15;;;20.10;81.90;;;18.78;100.00;95713.63;4931300;28;20063;-70
2022/06/30 05:35:34;;;;;;;7.95;7.15;;;20.20;82.20;;;18.83;100.00;95713.72;4913830;28;20050;-67
2022/06/30 05:38:00;;;;;;;9.63;8.05;;;20.20;81.60;;;18.88;100.00;95710.28;4911720;29;20040;-70
2022/06/30 05:40:27;;;;;;;10.77;7.07;;;20.30;81.80;;;18.94;100.00;95709.28;4928465;29;20027;-69
2022/06/30 05:42:53;;;;;;;8.20;7.40;;;20.40;81.70;;;19.04;100.00;95713.94;4941003;28;20040;-68
2022/06/30 05:45:18;;;;;;;7.38;6.63;;;20.60;81.20;;;19.09;100.00;95713.97;4961083;28;20026;-61
2022/06/30 05:47:50;;;;;;;9.00;6.63;;;20.60;80.20;;;19.18;100.00;95715.13;4965264;28;20038;-61
2022/06/30 05:50:17;;;;;;;8.88;6.00;;;20.70;79.70;;;19.28;100.00;95716.03;4949175;28;20047;-61
2022/06/30 05:52:43;;;;;;;11.07;6.85;;;20.90;79.80;;;19.39;100.00;95714.25;4967419;28;20046;-60
2022/06/30 05:55:09;;;;;;;7.03;6.20;;;21.10;80.20;;;19.50;100.00;95717.81;4951156;28;20425;-63
2022/06/30 05:57:34;;;;;;;7.07;6.15;;;21.10;79.40;;;19.63;100.00;95711.28;4929085;28;20031;-66
2022/06/30 06:00:00;;;;;;;9.13;6.53;;;21.30;79.40;;;19.76;100.00;95716.19;4966192;28;20034;-65
2022/06/30 06:02:26;;;;;;;9.73;6.43;;;21.50;79.20;;;19.86;100.00;95713.59;4934471;28;20045;-67
2022/06/30 06:04:51;;;;;;;9.73;6.10;;;21.60;79.20;;;20.00;100.00;95717.44;4934294;28;20038;-67
2022/06/30 06:07:17;;;;;;;7.53;5.70;;;21.70;78.90;;;20.11;100.00;95710.28;4942747;28;20030;-67
2022/06/30 06:09:43;;;;;;;8.07;5.68;;;21.90;77.10;;;20.25;100.00;95707.97;4950777;28;20057;-68
2022/06/30 06:12:09;;;;;;;7.30;6.22;;;22.10;77.00;;;20.37;100.00;95703.22;4966226;28;20502;-67
2022/06/30 06:14:35;;;;;;;8.45;5.40;;;22.20;76.30;;;20.49;100.00;95709.16;4946629;28;20070;-66
2022/06/30 06:17:00;;;;;;;8.88;5.35;;;22.40;76.80;;;20.67;100.00;95722.06;4948560;28;20530;-69
2022/06/30 06:19:26;;;;;;;6.72;5.22;;;22.60;75.80;;;20.79;100.00;95722.66;4949532;28;20406;-68
2022/06/30 06:21:52;;;;;;;9.93;5.38;;;22.70;74.00;;;20.94;100.00;95721.09;4966790;28;20035;-67
2022/06/30 06:24:18;;;;;;;7.93;5.28;;;22.90;72.90;;;21.07;100.00;95717.94;4938306;28;20102;-67
2022/06/30 06:26:43;;;;;;;7.68;4.80;;;23.10;73.20;;;21.22;100.00;95722.47;4934649;28;20122;-70
2022/06/30 06:29:09;;;;;;;6.57;5.35;;;23.40;72.90;;;21.36;100.00;95723.63;4953776;28;20043;-67
2022/06/30 06:31:39;;;;;;;10.27;5.13;;;23.50;71.10;;;21.49;100.00;95723.09;4938674;28;20534;-69
2022/06/30 06:34:05;;;;;;;6.68;4.65;;;23.70;70.00;;;21.62;100.00;95729.78;4969935;28;20043;-68
2022/06/30 06:36:31;;;;;;;9.02;4.75;;;23.80;69.90;;;21.77;99.42;95723.66;4971174;28;20049;-71
2022/06/30 06:38:57;;;;;;;4.72;4.05;;;24.10;68.90;;;21.92;99.15;95726.28;4968064;28;20043;-68
2022/06/30 06:41:24;;;;;;;6.25;4.57;;;24.30;69.00;;;22.08;97.49;95716.41;4968147;28;20035;-72
2022/06/30 06:43:52;;;;;;;9.13;4.30;;;24.50;67.50;;;22.22;95.72;95704.06;4932860;28;20031;-67
2022/06/30 06:46:18;;;;;;;6.90;4.15;;;24.70;66.70;;;22.38;96.67;95707.47;4969602;28;20058;-67
2022/06/30 06:48:44;;;;;;;5.97;4.10;;;24.90;67.30;;;22.56;96.83;95705.00;4966361;28;20030;-67
2022/06/30 06:51:10;;;;;;;6.60;4.03;;;25.10;67.20;;;22.76;95.93;95704.13;4967797;28;20058;-68
2022/06/30 06:53:37;;;;;;;5.22;4.20;;;25.30;66.80;;;22.94;93.53;95692.00;4971836;28;20034;-70
2022/06/30 06:56:04;;;;;;;7.72;4.18;;;25.40;64.10;;;23.09;92.57;95691.91;4936829;28;20287;-67
2022/06/30 06:58:30;;;;;;;7.30;3.85;;;25.60;64.20;;;23.28;92.18;95693.94;4953013;28;20239;-67
2022/06/30 07:00:56;;;;;;;4.93;3.38;;;25.80;64.30;;;23.42;91.33;95694.91;4951944;28;20046;-63
2022/06/30 07:03:22;;;;;;;6.50;4.07;;;26.00;63.50;;;23.54;89.51;95690.00;4954109;28;20345;-63
2022/06/30 07:05:47;;;;;;;7.10;3.63;;;26.10;61.60;;;23.67;89.05;95692.06;4951454;28;20035;-62
2022/06/30 07:08:13;;;;;;;11.18;4.18;;;26.40;62.40;;;23.79;89.73;95692.50;4928974;28;20419;-67
2022/06/30 07:10:39;;;;;;;7.60;4.00;;;26.60;62.40;;;23.96;88.82;95699.31;4934057;28;20049;-68
2022/06/30 07:13:05;;;;;;;6.80;3.63;;;26.70;61.70;;;24.07;88.07;95698.16;4960100;28;20036;-68
2022/06/30 07:15:30;;;;;;;6.80;3.50;;;27.00;60.90;;;24.21;86.91;95692.88;4947507;28;20106;-68
2022/06/30 07:17:56;;;;;;;5.63;3.60;;;27.10;59.70;;;24.32;86.38;95687.16;4969823;28;20542;-66
2022/06/30 07:20:22;;;;;;;8.00;3.75;;;27.30;59.70;;;24.49;85.04;95689.41;4959869;28;20067;-67
2022/06/30 07:22:48;;;;;;;6.20;3.83;;;27.50;58.10;;;24.63;84.68;95686.78;4964009;28;20062;-69
2022/06/30 07:25:13;;;;;;;7.47;5.65;;;27.60;57.50;;;24.72;84.47;95683.19;4950359;28;20051;-70
2022/06/30 07:27:39;;;;;;;6.28;4.32;;;27.60;58.80;;;24.86;83.89;95680.56;4951755;28;20085;-67
2022/06/30 07:30:06;;;;;;;12.50;10.48;;;27.80;57.70;;;24.99;82.19;95677.22;4919249;28;20047;-69
2022/06/30 07:32:32;;;;;;;10.23;7.35;;;28.00;56.30;;;25.10;81.91;95675.16;4932392;28;20138;-69
2022/06/30 07:34:57;;;;;;;11.02;8.35;;;28.20;56.50;;;25.25;82.02;95682.22;4949795;28;20042;-72
2022/06/30 07:37:23;;;;;;;10.02;4.13;;;28.50;56.40;;;25.40;81.11;95690.06;4951264;28;20538;-71
2022/06/30 07:39:49;;;;;;;6.25;3.47;;;28.60;55.30;;;25.51;79.06;95686.13;4953245;28;20138;-71
2022/06/30 07:42:15;;;;;;;5.15;3.13;;;28.60;53.50;;;25.63;78.98;95677.59;4951313;28;20031;-74
2022/06/30 07:44:42;;;;;;;6.07;3.03;;;28.90;53.90;;;25.79;78.79;95684.34;4939698;28;20054;-71
2022/06/30 07:47:08;;;;;;;7.43;3.70;;;29.10;53.00;;;25.87;76.77;95675.59;4965793;28;20041;-70
2022/06/30 07:49:34;;;;;;;4.30;2.75;;;29.20;52.00;;;26.02;77.27;95671.81;4949625;28;20158;-72
2022/06/30 07:52:00;;;;;;;5.75;2.72;;;29.50;53.00;;;26.20;76.80;95675.53;4942697;28;20027;-70
2022/06/30 07:54:25;;;;;;;3.33;2.53;;;29.70;52.40;;;26.38;76.85;95684.69;4965846;28;20081;-71
2022/06/30 07:56:51;;;;;;;4.53;2.63;;;30.00;52.10;;;26.55;75.31;95671.41;4940587;28;20503;-72
2022/06/30 07:59:17;;;;;;;6.38;3.08;;;30.10;50.70;;;26.72;74.65;95666.19;4967053;28;20456;-72
2022/06/30 08:01:43;;;;;;;3.83;2.90;;;30.40;50.10;;;26.90;74.15;95669.03;4961763;28;20047;-70
2022/06/30 08:04:09;;;;;;;5.72;2.80;;;30.60;50.10;;;27.07;73.61;95671.94;4965223;28;20031;-74
2022/06/30 08:06:35;;;;;;;5.50;2.83;;;30.80;50.10;;;27.18;72.54;95665.22;4952349;28;20050;-71
2022/06/30 08:09:00;;;;;;;4.57;2.53;;;30.60;48.80;;;27.32;72.44;95668.66;4943588;28;20054;-74
2022/06/30 08:11:28;;;;;;;5.63;2.53;;;30.90;49.10;;;27.51;72.42;95671.19;4934299;28;20066;-73
2022/06/30 08:13:53;;;;;;;4.45;2.75;;;31.10;49.50;;;27.69;71.04;95674.84;4949402;28;20039;-72
2022/06/30 08:16:19;;;;;;;9.15;2.88;;;31.40;47.90;;;27.85;70.38;95667.97;4950794;28;20067;-65
2022/06/30 08:18:45;;;;;;;4.65;2.40;;;31.60;48.20;;;28.00;69.38;95670.25;4967358;28;20446;-69
2022/06/30 08:21:11;;;;;;;4.22;2.67;;;31.70;46.80;;;28.11;67.73;95667.31;4949209;28;20436;-68
2022/06/30 08:23:37;;;;;;;5.32;2.35;;;31.70;45.00;;;28.22;67.21;95669.41;4920897;29;20594;-68
2022/06/30 08:26:03;;;;;;;5.35;2.38;;;32.00;45.40;;;28.42;67.07;95673.50;4932784;28;20039;-69
2022/06/30 08:28:31;;;;;;;4.20;2.50;;;32.30;45.60;;;28.55;65.47;95669.91;4927866;28;20045;-70
2022/06/30 08:30:57;;;;;;;5.25;2.28;;;32.30;43.80;;;28.66;64.96;95665.78;4965288;28;20093;-69
2022/06/30 08:33:23;;;;;;;3.80;2.30;;;32.50;43.80;;;28.83;63.98;95664.22;4967348;28;20042;-65
2022/06/30 08:35:49;;;;;;;5.70;2.40;;;32.70;43.00;;;28.97;63.76;95659.50;4950565;28;20090;-71
2022/06/30 08:38:14;;;;;;;4.28;2.60;;;32.90;43.40;;;29.13;62.86;95649.78;4964724;28;20066;-69
2022/06/30 08:43:25;;;;;;;5.60;2.70;;;33.30;43.80;;;29.52;63.46;95645.34;4950453;28;20038;-69
2022/06/30 08:45:52;;;;;;;5.72;2.63;;;33.60;44.10;;;29.74;63.05;95647.88;4933444;28;20027;-68
2022/06/30 08:48:17;;;;;;;4.82;2.60;;;33.70;43.10;;;29.92;61.33;95647.84;4933572;28;20027;-60
2022/06/30 08:50:43;;;;;;;4.00;2.55;;;33.70;40.70;;;30.03;61.01;95649.91;4969375;28;20384;-63
2022/06/30 08:53:09;;;;;;;4.65;2.38;;;33.80;41.20;;;30.23;59.64;95648.41;4950095;28;20035;-61
2022/06/30 08:55:35;;;;;;;4.70;2.58;;;34.10;40.80;;;30.47;60.42;95648.59;4981421;28;20027;-61
2022/06/30 08:58:03;;;;;;;3.90;2.15;;;34.20;41.70;;;30.68;58.37;95642.47;4947087;28;20333;-66
2022/06/30 09:00:29;;;;;;;7.68;2.60;;;34.40;40.90;;;30.92;59.16;95639.91;4966463;28;20141;-67
2022/06/30 09:02:55;;;;;;;4.60;2.63;;;34.50;41.50;;;31.10;58.40;95648.75;4966790;28;20031;-69
2022/06/30 09:05:21;;;;;;;4.65;2.42;;;34.40;40.70;;;31.31;57.19;95633.25;4964387;28;20137;-68
2022/06/30 09:07:46;;;;;;;5.07;2.33;;;34.70;41.20;;;31.44;56.86;95631.38;4935117;28;20472;-69
2022/06/30 09:10:12;;;;;;;5.43;2.72;;;34.70;39.60;;;31.58;55.97;95626.47;4948719;28;20531;-67
2022/06/30 09:12:38;;;;;;;8.50;5.70;;;34.70;40.20;;;31.76;55.90;95623.59;4965876;28;20154;-69
2022/06/30 09:15:04;;;;;;;5.88;3.92;;;34.80;40.60;;;31.94;55.55;95633.97;4965008;28;20039;-66
2022/06/30 09:17:30;;;;;;;4.60;2.70;;;35.00;39.90;;;32.09;53.92;95621.63;4949338;28;20047;-67
2022/06/30 09:20:08;;;;;;;3.15;2.65;;;35.20;37.80;;;32.23;51.58;95630.25;4948811;28;20038;-66
2022/06/30 09:22:39;;;;;;;4.82;2.78;;;35.30;38.50;;;32.46;50.88;95630.66;4976240;28;20118;-66
2022/06/30 09:25:15;;;;;;;5.95;2.42;;;35.50;38.20;;;32.68;48.82;95626.66;4949929;28;20031;-66
2022/06/30 09:27:42;;;;;;;3.95;2.80;;;35.70;37.70;;;32.81;50.72;95622.81;4931711;28;20094;-69
2022/06/30 09:30:10;;;;;;;5.43;2.50;;;35.60;37.10;;;32.91;50.90;95637.13;4965468;28;20027;-69
2022/06/30 09:32:49;;;;;;;4.57;2.60;;;35.90;37.60;;;33.06;47.20;95622.78;4963385;28;20035;-68
2022/06/30 09:35:16;;;;;;;3.97;2.25;;;36.00;36.40;;;33.15;49.99;95615.25;4962698;28;20063;-67
2022/06/30 09:37:42;;;;;;;6.80;2.90;;;36.20;36.80;;;33.34;49.08;95620.91;4950356;28;20085;-68
2022/06/30 09:40:09;;;;;;;8.30;4.25;;;36.40;35.50;;;33.41;48.41;95604.72;4931116;28;20035;-69
2022/06/30 09:42:43;;;;;;;4.90;3.03;;;36.30;35.90;;;33.51;47.04;95606.19;4934952;28;20350;-67
2022/06/30 09:45:14;;;;;;;8.35;2.65;;;36.50;37.20;;;33.67;47.91;95619.84;4965924;28;20031;-68
2022/06/30 09:47:54;;;;;;;6.78;2.50;;;36.80;36.30;;;33.84;44.34;95614.09;4964034;28;20683;-67
2022/06/30 09:50:21;;;;;;;4.80;2.58;;;37.10;34.40;;;34.00;47.33;95616.88;4948470;28;20093;-69
2022/06/30 09:53:08;;;;;;;5.75;2.50;;;37.30;35.60;;;34.12;45.36;95614.03;4966307;28;20039;-69
2022/06/30 09:55:44;;;;;;;5.82;2.65;;;37.50;35.50;;;34.29;44.58;95621.09;4964830;28;20031;-68
2022/06/30 09:58:12;;;;;;;4.90;2.60;;;37.70;34.30;;;34.45;46.77;95619.19;4947089;28;20047;-68
2022/06/30 10:00:49;;;;;;;3.97;2.20;;;38.10;35.00;;;34.54;42.98;95619.78;4980203;28;20038;-68
2022/06/30 10:03:18;;;;;;;4.82;2.10;;;38.00;33.30;;;34.68;45.04;95617.38;4944316;28;20086;-69
2022/06/30 10:05:48;;;;;;;4.75;2.10;;;38.30;32.20;;;34.70;43.17;95614.28;4947313;28;20031;-69
2022/06/30 10:08:16;;;;;;;8.05;2.63;;;38.30;33.20;;;34.90;44.86;95615.97;4941101;28;20032;-69
2022/06/30 10:10:42;;;;;;;4.18;2.35;;;38.60;32.00;;;35.13;44.57;95618.00;4950579;28;20034;-75
2022/06/30 10:13:16;;;;;;;4.03;2.28;;;38.60;33.60;;;35.03;42.29;95616.59;4967857;28;20034;-69
2022/06/30 10:15:45;;;;;;;4.32;2.53;;;38.40;33.60;;;35.25;42.77;95615.13;4947862;28;20065;-67
2022/06/30 10:18:11;;;;;;;4.75;2.53;;;39.00;32.60;;;35.57;43.51;95616.59;4932521;28;20045;-69